sensor_id;sensor_type;location;lat;lon;timestamp;pressure;altitude;pressure_sealevel;temperature;humidity
43820;BME280;67762;52.476;6.046;2023-06-24T00:00:01;102391.94;;;16.25;80.27
43820;BME280;67762;52.476;6.046;2023-06-24T00:02:34;102384.19;;;16.22;80.77
43820;BME280;67762;52.476;6.046;2023-06-24T00:05:05;102385.22;;;16.21;80.43
43820;BME280;67762;52.476;6.046;2023-06-24T00:07:34;102385.34;;;16.20;80.79
43820;BME280;67762;52.476;6.046;2023-06-24T00:10:13;102381.81;;;16.19;80.11
43820;BME280;67762;52.476;6.046;2023-06-24T00:12:40;102389.75;;;16.21;80.53
43820;BME280;67762;52.476;6.046;2023-06-24T00:15:08;102381.66;;;16.21;80.03
43820;BME280;67762;52.476;6.046;2023-06-24T00:17:35;102385.88;;;16.15;80.42
43820;BME280;67762;52.476;6.046;2023-06-24T00:20:01;102386.19;;;16.12;80.11
43820;BME280;67762;52.476;6.046;2023-06-24T00:22:30;102392.56;;;16.11;79.70
43820;BME280;67762;52.476;6.046;2023-06-24T00:24:55;102384.13;;;16.06;80.32
43820;BME280;67762;52.476;6.046;2023-06-24T00:27:22;102386.28;;;16.03;79.29
43820;BME280;67762;52.476;6.046;2023-06-24T00:29:48;102382.59;;;16.04;79.44
43820;BME280;67762;52.476;6.046;2023-06-24T00:32:14;102382.13;;;16.08;79.53
43820;BME280;67762;52.476;6.046;2023-06-24T00:34:40;102384.31;;;16.05;78.97
43820;BME280;67762;52.476;6.046;2023-06-24T00:37:09;102387.00;;;16.05;79.34
43820;BME280;67762;52.476;6.046;2023-06-24T00:39:35;102382.34;;;16.23;79.87
43820;BME280;67762;52.476;6.046;2023-06-24T00:42:01;102394.34;;;16.36;79.31
43820;BME280;67762;52.476;6.046;2023-06-24T00:44:27;102391.41;;;16.22;78.83
43820;BME280;67762;52.476;6.046;2023-06-24T00:46:53;102390.53;;;16.13;78.67
43820;BME280;67762;52.476;6.046;2023-06-24T00:49:19;102395.25;;;16.11;79.00
43820;BME280;67762;52.476;6.046;2023-06-24T00:51:45;102394.25;;;16.12;79.12
43820;BME280;67762;52.476;6.046;2023-06-24T00:54:16;102397.91;;;16.03;79.46
43820;BME280;67762;52.476;6.046;2023-06-24T00:56:43;102399.59;;;15.96;79.19
43820;BME280;67762;52.476;6.046;2023-06-24T00:59:12;102403.44;;;15.94;80.12
43820;BME280;67762;52.476;6.046;2023-06-24T01:01:39;102401.22;;;15.89;80.30
43820;BME280;67762;52.476;6.046;2023-06-24T01:04:06;102384.03;;;15.82;80.45
43820;BME280;67762;52.476;6.046;2023-06-24T01:06:35;102392.09;;;15.82;80.21
43820;BME280;67762;52.476;6.046;2023-06-24T01:09:01;102392.78;;;15.84;80.80
43820;BME280;67762;52.476;6.046;2023-06-24T01:11:29;102397.00;;;15.87;79.99
43820;BME280;67762;52.476;6.046;2023-06-24T01:13:56;102390.59;;;15.79;80.78
43820;BME280;67762;52.476;6.046;2023-06-24T01:16:44;102386.00;;;15.80;80.16
43820;BME280;67762;52.476;6.046;2023-06-24T01:28:01;102371.00;;;16.03;79.65
43820;BME280;67762;52.476;6.046;2023-06-24T01:33:25;102377.06;;;16.13;79.64
43820;BME280;67762;52.476;6.046;2023-06-24T01:35:53;102377.75;;;16.07;79.81
43820;BME280;67762;52.476;6.046;2023-06-24T01:38:31;102371.34;;;16.08;79.22
43820;BME280;67762;52.476;6.046;2023-06-24T01:41:00;102367.50;;;16.19;79.83
43820;BME280;67762;52.476;6.046;2023-06-24T01:43:29;102366.06;;;16.32;78.89
43820;BME280;67762;52.476;6.046;2023-06-24T01:45:56;102361.03;;;16.46;78.64
43820;BME280;67762;52.476;6.046;2023-06-24T01:48:28;102367.75;;;16.50;78.54
43820;BME280;67762;52.476;6.046;2023-06-24T01:51:01;102370.84;;;16.55;78.96
43820;BME280;67762;52.476;6.046;2023-06-24T01:53:33;102368.97;;;16.55;78.94
43820;BME280;67762;52.476;6.046;2023-06-24T01:56:01;102378.19;;;16.53;78.15
43820;BME280;67762;52.476;6.046;2023-06-24T01:58:29;102371.66;;;16.55;78.11
43820;BME280;67762;52.476;6.046;2023-06-24T02:00:57;102373.56;;;16.63;78.35
43820;BME280;67762;52.476;6.046;2023-06-24T02:03:24;102366.81;;;16.67;78.33
43820;BME280;67762;52.476;6.046;2023-06-24T02:05:58;102368.19;;;16.71;78.05
43820;BME280;67762;52.476;6.046;2023-06-24T02:08:54;102362.59;;;16.80;78.41
43820;BME280;67762;52.476;6.046;2023-06-24T02:11:22;102364.13;;;16.91;77.59
43820;BME280;67762;52.476;6.046;2023-06-24T02:13:51;102360.09;;;17.03;77.47
43820;BME280;67762;52.476;6.046;2023-06-24T02:16:18;102359.75;;;17.14;76.95
43820;BME280;67762;52.476;6.046;2023-06-24T02:18:45;102355.72;;;17.10;76.78
43820;BME280;67762;52.476;6.046;2023-06-24T02:21:16;102354.38;;;16.98;76.65
43820;BME280;67762;52.476;6.046;2023-06-24T02:23:46;102353.69;;;16.96;77.06
43820;BME280;67762;52.476;6.046;2023-06-24T02:26:12;102354.69;;;17.03;76.77
43820;BME280;67762;52.476;6.046;2023-06-24T02:28:39;102359.09;;;17.04;77.14
43820;BME280;67762;52.476;6.046;2023-06-24T02:31:08;102354.69;;;16.95;77.20
43820;BME280;67762;52.476;6.046;2023-06-24T02:33:42;102361.09;;;16.94;77.35
43820;BME280;67762;52.476;6.046;2023-06-24T02:36:08;102356.38;;;17.04;76.65
43820;BME280;67762;52.476;6.046;2023-06-24T02:38:35;102354.69;;;17.19;76.90
43820;BME280;67762;52.476;6.046;2023-06-24T02:41:00;102358.88;;;17.30;76.22
43820;BME280;67762;52.476;6.046;2023-06-24T02:43:30;102346.91;;;17.32;75.61
43820;BME280;67762;52.476;6.046;2023-06-24T02:45:58;102349.94;;;17.37;75.45
43820;BME280;67762;52.476;6.046;2023-06-24T02:48:26;102344.69;;;17.44;75.44
43820;BME280;67762;52.476;6.046;2023-06-24T02:50:54;102341.81;;;17.45;75.25
43820;BME280;67762;52.476;6.046;2023-06-24T02:53:19;102354.13;;;17.48;74.90
43820;BME280;67762;52.476;6.046;2023-06-24T02:55:47;102352.28;;;17.57;74.89
43820;BME280;67762;52.476;6.046;2023-06-24T02:58:14;102349.38;;;17.66;74.53
43820;BME280;67762;52.476;6.046;2023-06-24T03:00:55;102357.94;;;17.78;74.00
43820;BME280;67762;52.476;6.046;2023-06-24T03:03:31;102352.53;;;17.78;73.34
43820;BME280;67762;52.476;6.046;2023-06-24T03:05:57;102352.59;;;17.62;73.88
43820;BME280;67762;52.476;6.046;2023-06-24T03:08:26;102345.53;;;17.44;74.17
43820;BME280;67762;52.476;6.046;2023-06-24T03:10:55;102357.22;;;17.29;74.52
43820;BME280;67762;52.476;6.046;2023-06-24T03:13:23;102353.00;;;17.18;74.87
43820;BME280;67762;52.476;6.046;2023-06-24T03:15:56;102351.47;;;17.08;74.75
43820;BME280;67762;52.476;6.046;2023-06-24T03:18:21;102355.38;;;16.97;75.75
43820;BME280;67762;52.476;6.046;2023-06-24T03:20:48;102349.81;;;16.82;75.66
43820;BME280;67762;52.476;6.046;2023-06-24T03:23:17;102360.25;;;16.69;75.85
43820;BME280;67762;52.476;6.046;2023-06-24T03:25:43;102355.03;;;16.60;75.89
43820;BME280;67762;52.476;6.046;2023-06-24T03:28:09;102371.84;;;16.54;76.82
43820;BME280;67762;52.476;6.046;2023-06-24T03:30:44;102352.94;;;16.46;76.39
43820;BME280;67762;52.476;6.046;2023-06-24T03:33:13;102359.84;;;16.40;76.72
43820;BME280;67762;52.476;6.046;2023-06-24T03:35:43;102361.47;;;16.33;77.53
43820;BME280;67762;52.476;6.046;2023-06-24T03:38:11;102361.31;;;16.26;76.94
43820;BME280;67762;52.476;6.046;2023-06-24T03:40:37;102360.16;;;16.29;77.27
43820;BME280;67762;52.476;6.046;2023-06-24T03:43:03;102359.97;;;16.38;77.16
43820;BME280;67762;52.476;6.046;2023-06-24T03:45:29;102363.75;;;16.54;77.07
43820;BME280;67762;52.476;6.046;2023-06-24T03:47:54;102361.94;;;16.62;76.95
43820;BME280;67762;52.476;6.046;2023-06-24T03:50:20;102362.09;;;16.69;77.68
43820;BME280;67762;52.476;6.046;2023-06-24T03:52:46;102347.09;;;16.74;77.58
43820;BME280;67762;52.476;6.046;2023-06-24T03:55:12;102347.78;;;16.76;77.36
43820;BME280;67762;52.476;6.046;2023-06-24T03:57:38;102351.16;;;16.78;77.95
43820;BME280;67762;52.476;6.046;2023-06-24T04:00:04;102361.59;;;16.81;78.29
43820;BME280;67762;52.476;6.046;2023-06-24T04:02:38;102358.56;;;16.76;78.48
43820;BME280;67762;52.476;6.046;2023-06-24T04:05:04;102357.72;;;16.84;78.94
43820;BME280;67762;52.476;6.046;2023-06-24T04:07:31;102357.41;;;16.87;78.50
43820;BME280;67762;52.476;6.046;2023-06-24T04:09:57;102354.19;;;16.91;79.12
43820;BME280;67762;52.476;6.046;2023-06-24T04:12:23;102358.25;;;16.95;78.56
43820;BME280;67762;52.476;6.046;2023-06-24T04:14:49;102353.38;;;16.99;78.92
43820;BME280;67762;52.476;6.046;2023-06-24T04:17:15;102358.56;;;17.09;78.74
43820;BME280;67762;52.476;6.046;2023-06-24T04:19:41;102356.53;;;17.19;79.07
43820;BME280;67762;52.476;6.046;2023-06-24T04:22:07;102366.16;;;17.29;79.03
43820;BME280;67762;52.476;6.046;2023-06-24T04:24:33;102367.66;;;17.40;79.21
43820;BME280;67762;52.476;6.046;2023-06-24T04:26:59;102363.44;;;17.53;78.64
43820;BME280;67762;52.476;6.046;2023-06-24T04:29:25;102364.22;;;17.70;79.14
43820;BME280;67762;52.476;6.046;2023-06-24T04:31:50;102365.84;;;17.87;78.78
43820;BME280;67762;52.476;6.046;2023-06-24T04:34:16;102372.03;;;18.04;78.42
43820;BME280;67762;52.476;6.046;2023-06-24T04:36:42;102365.91;;;18.18;78.00
43820;BME280;67762;52.476;6.046;2023-06-24T04:39:07;102369.34;;;18.35;77.89
43820;BME280;67762;52.476;6.046;2023-06-24T04:41:34;102371.13;;;18.50;77.73
43820;BME280;67762;52.476;6.046;2023-06-24T04:43:59;102373.06;;;18.64;76.42
43820;BME280;67762;52.476;6.046;2023-06-24T04:46:25;102379.75;;;18.77;75.87
43820;BME280;67762;52.476;6.046;2023-06-24T04:48:51;102375.94;;;18.86;75.03
43820;BME280;67762;52.476;6.046;2023-06-24T04:51:16;102372.81;;;18.97;74.49
43820;BME280;67762;52.476;6.046;2023-06-24T04:53:42;102374.44;;;19.06;73.40
43820;BME280;67762;52.476;6.046;2023-06-24T04:56:08;102375.00;;;19.16;72.19
43820;BME280;67762;52.476;6.046;2023-06-24T04:58:33;102381.66;;;19.28;71.47
43820;BME280;67762;52.476;6.046;2023-06-24T05:00:59;102383.13;;;19.39;71.36
43820;BME280;67762;52.476;6.046;2023-06-24T05:03:25;102386.22;;;19.50;70.69
43820;BME280;67762;52.476;6.046;2023-06-24T05:05:50;102383.53;;;19.65;70.61
43820;BME280;67762;52.476;6.046;2023-06-24T05:08:16;102392.50;;;19.80;70.26
43820;BME280;67762;52.476;6.046;2023-06-24T05:10:42;102392.31;;;19.96;69.78
43820;BME280;67762;52.476;6.046;2023-06-24T05:13:07;102396.88;;;20.10;68.69
43820;BME280;67762;52.476;6.046;2023-06-24T05:15:33;102391.81;;;20.22;68.19
43820;BME280;67762;52.476;6.046;2023-06-24T05:17:59;102388.25;;;20.36;67.94
43820;BME280;67762;52.476;6.046;2023-06-24T05:20:24;102386.91;;;20.47;67.27
43820;BME280;67762;52.476;6.046;2023-06-24T05:22:50;102383.91;;;20.56;66.90
43820;BME280;67762;52.476;6.046;2023-06-24T05:25:16;102385.47;;;20.65;66.65
43820;BME280;67762;52.476;6.046;2023-06-24T05:27:42;102380.78;;;20.74;65.36
43820;BME280;67762;52.476;6.046;2023-06-24T05:30:10;102379.78;;;20.81;64.32
43820;BME280;67762;52.476;6.046;2023-06-24T05:32:36;102382.38;;;20.89;64.41
43820;BME280;67762;52.476;6.046;2023-06-24T05:35:01;102382.06;;;20.99;64.40
43820;BME280;67762;52.476;6.046;2023-06-24T05:37:27;102375.28;;;21.10;63.44
43820;BME280;67762;52.476;6.046;2023-06-24T05:39:53;102370.16;;;21.21;63.24
43820;BME280;67762;52.476;6.046;2023-06-24T05:42:19;102377.34;;;21.35;63.06
43820;BME280;67762;52.476;6.046;2023-06-24T05:44:45;102376.81;;;21.46;62.45
43820;BME280;67762;52.476;6.046;2023-06-24T05:47:10;102381.97;;;21.63;62.44
43820;BME280;67762;52.476;6.046;2023-06-24T05:49:36;102381.63;;;21.79;61.81
43820;BME280;67762;52.476;6.046;2023-06-24T05:52:02;102387.78;;;21.94;60.88
43820;BME280;67762;52.476;6.046;2023-06-24T05:54:27;102389.53;;;22.01;60.62
43820;BME280;67762;52.476;6.046;2023-06-24T05:56:53;102385.34;;;22.05;59.47
43820;BME280;67762;52.476;6.046;2023-06-24T05:59:19;102384.09;;;22.08;59.44
43820;BME280;67762;52.476;6.046;2023-06-24T06:01:44;102377.50;;;22.24;59.71
43820;BME280;67762;52.476;6.046;2023-06-24T06:04:10;102375.03;;;22.42;59.70
43820;BME280;67762;52.476;6.046;2023-06-24T06:06:36;102376.94;;;22.48;57.31
43820;BME280;67762;52.476;6.046;2023-06-24T06:09:01;102372.97;;;22.50;57.07
43820;BME280;67762;52.476;6.046;2023-06-24T06:11:27;102378.03;;;22.60;56.71
43820;BME280;67762;52.476;6.046;2023-06-24T06:13:53;102373.25;;;22.75;56.56
43820;BME280;67762;52.476;6.046;2023-06-24T06:16:19;102368.66;;;22.89;56.22
43820;BME280;67762;52.476;6.046;2023-06-24T06:18:44;102372.47;;;23.01;55.67
43820;BME280;67762;52.476;6.046;2023-06-24T06:21:10;102366.56;;;23.10;55.84
43820;BME280;67762;52.476;6.046;2023-06-24T06:23:36;102374.97;;;23.15;54.59
43820;BME280;67762;52.476;6.046;2023-06-24T06:26:01;102371.41;;;23.15;53.64
43820;BME280;67762;52.476;6.046;2023-06-24T06:28:27;102371.41;;;23.15;52.96
43820;BME280;67762;52.476;6.046;2023-06-24T06:30:54;102373.31;;;23.21;53.64
43820;BME280;67762;52.476;6.046;2023-06-24T06:33:20;102377.09;;;23.40;53.93
43820;BME280;67762;52.476;6.046;2023-06-24T06:35:45;102378.09;;;23.58;53.45
43820;BME280;67762;52.476;6.046;2023-06-24T06:38:11;102383.53;;;23.65;53.50
43820;BME280;67762;52.476;6.046;2023-06-24T06:40:37;102378.91;;;23.72;53.15
43820;BME280;67762;52.476;6.046;2023-06-24T06:43:02;102377.88;;;23.73;53.16
43820;BME280;67762;52.476;6.046;2023-06-24T06:45:28;102375.94;;;23.93;52.43
43820;BME280;67762;52.476;6.046;2023-06-24T06:47:53;102383.44;;;24.04;51.68
43820;BME280;67762;52.476;6.046;2023-06-24T06:50:19;102385.09;;;24.18;51.32
43820;BME280;67762;52.476;6.046;2023-06-24T06:52:45;102378.53;;;24.26;50.93
43820;BME280;67762;52.476;6.046;2023-06-24T06:55:10;102381.91;;;24.21;51.50
43820;BME280;67762;52.476;6.046;2023-06-24T06:57:36;102381.34;;;24.13;51.18
43820;BME280;67762;52.476;6.046;2023-06-24T07:00:02;102383.59;;;24.16;51.30
43820;BME280;67762;52.476;6.046;2023-06-24T07:02:30;102385.66;;;24.27;51.14
43820;BME280;67762;52.476;6.046;2023-06-24T07:04:55;102375.75;;;24.32;51.25
43820;BME280;67762;52.476;6.046;2023-06-24T07:07:21;102378.22;;;24.47;51.08
43820;BME280;67762;52.476;6.046;2023-06-24T07:09:47;102385.28;;;24.61;50.78
43820;BME280;67762;52.476;6.046;2023-06-24T07:12:13;102384.13;;;24.82;50.98
43820;BME280;67762;52.476;6.046;2023-06-24T07:14:39;102385.75;;;24.89;49.99
43820;BME280;67762;52.476;6.046;2023-06-24T07:17:05;102395.84;;;25.14;49.90
43820;BME280;67762;52.476;6.046;2023-06-24T07:19:31;102390.31;;;25.45;48.89
43820;BME280;67762;52.476;6.046;2023-06-24T07:21:56;102385.78;;;25.82;48.47
43820;BME280;67762;52.476;6.046;2023-06-24T07:24:22;102387.09;;;26.16;47.00
43820;BME280;67762;52.476;6.046;2023-06-24T07:26:47;102375.97;;;26.29;46.02
43820;BME280;67762;52.476;6.046;2023-06-24T07:29:13;102375.44;;;26.20;46.22
43820;BME280;67762;52.476;6.046;2023-06-24T07:31:39;102373.84;;;26.12;45.63
43820;BME280;67762;52.476;6.046;2023-06-24T07:34:05;102368.81;;;26.09;45.02
43820;BME280;67762;52.476;6.046;2023-06-24T07:36:31;102366.00;;;25.98;44.04
43820;BME280;67762;52.476;6.046;2023-06-24T07:38:56;102369.94;;;26.02;44.09
43820;BME280;67762;52.476;6.046;2023-06-24T07:41:22;102373.63;;;26.32;43.33
43820;BME280;67762;52.476;6.046;2023-06-24T07:43:48;102374.22;;;26.76;42.77
43820;BME280;67762;52.476;6.046;2023-06-24T07:46:13;102370.03;;;27.03;41.72
43820;BME280;67762;52.476;6.046;2023-06-24T07:48:39;102379.34;;;27.13;39.92
43820;BME280;67762;52.476;6.046;2023-06-24T07:51:05;102371.22;;;26.95;40.48
43820;BME280;67762;52.476;6.046;2023-06-24T07:53:31;102376.69;;;26.95;40.31
43820;BME280;67762;52.476;6.046;2023-06-24T07:55:59;102378.69;;;26.88;39.35
43820;BME280;67762;52.476;6.046;2023-06-24T07:58:24;102368.16;;;26.73;38.74
43820;BME280;67762;52.476;6.046;2023-06-24T08:00:50;102368.06;;;26.80;38.94
43820;BME280;67762;52.476;6.046;2023-06-24T08:03:16;102369.81;;;26.74;38.29
43820;BME280;67762;52.476;6.046;2023-06-24T08:05:42;102363.50;;;26.62;38.44
43820;BME280;67762;52.476;6.046;2023-06-24T08:08:08;102366.88;;;26.46;38.15
43820;BME280;67762;52.476;6.046;2023-06-24T08:10:34;102366.97;;;26.40;39.22
43820;BME280;67762;52.476;6.046;2023-06-24T08:12:59;102370.25;;;26.30;38.89
43820;BME280;67762;52.476;6.046;2023-06-24T08:15:25;102363.56;;;26.08;38.51
43820;BME280;67762;52.476;6.046;2023-06-24T08:17:52;102355.91;;;25.98;38.29
43820;BME280;67762;52.476;6.046;2023-06-24T08:20:18;102366.00;;;26.16;38.22
43820;BME280;67762;52.476;6.046;2023-06-24T08:22:44;102366.22;;;26.33;38.57
43820;BME280;67762;52.476;6.046;2023-06-24T08:25:10;102368.59;;;26.29;39.08
43820;BME280;67762;52.476;6.046;2023-06-24T08:27:35;102370.88;;;26.32;39.19
43820;BME280;67762;52.476;6.046;2023-06-24T08:30:04;102362.41;;;26.34;39.21
43820;BME280;67762;52.476;6.046;2023-06-24T08:32:30;102358.25;;;26.31;39.13
43820;BME280;67762;52.476;6.046;2023-06-24T08:34:55;102354.47;;;26.44;38.92
43820;BME280;67762;52.476;6.046;2023-06-24T08:37:21;102352.88;;;26.66;38.77
43820;BME280;67762;52.476;6.046;2023-06-24T08:39:47;102347.75;;;26.88;38.68
43820;BME280;67762;52.476;6.046;2023-06-24T08:42:13;102350.75;;;27.21;38.63
43820;BME280;67762;52.476;6.046;2023-06-24T08:44:39;102363.38;;;27.34;38.82
43820;BME280;67762;52.476;6.046;2023-06-24T08:47:05;102371.34;;;27.35;39.25
43820;BME280;67762;52.476;6.046;2023-06-24T08:49:31;102360.31;;;27.42;39.41
43820;BME280;67762;52.476;6.046;2023-06-24T08:52:04;102357.09;;;27.68;39.50
43820;BME280;67762;52.476;6.046;2023-06-24T08:54:30;102340.56;;;28.03;39.43
43820;BME280;67762;52.476;6.046;2023-06-24T08:56:59;102346.38;;;28.46;38.76
43820;BME280;67762;52.476;6.046;2023-06-24T08:59:27;102344.91;;;28.72;38.61
43820;BME280;67762;52.476;6.046;2023-06-24T09:01:53;61604.63;;;-141.99;100.00
43820;BME280;67762;52.476;6.046;2023-06-24T09:04:18;61604.63;;;-141.99;100.00
43820;BME280;67762;52.476;6.046;2023-06-24T09:06:44;61604.63;;;-141.99;100.00
43820;BME280;67762;52.476;6.046;2023-06-24T09:09:21;61604.63;;;-141.99;100.00
43820;BME280;67762;52.476;6.046;2023-06-24T09:12:00;61604.63;;;-141.99;100.00
43820;BME280;67762;52.476;6.046;2023-06-24T09:14:29;61604.63;;;-141.99;100.00
43820;BME280;67762;52.476;6.046;2023-06-24T09:16:56;61604.63;;;-141.99;100.00
43820;BME280;67762;52.476;6.046;2023-06-24T09:19:23;61604.63;;;-141.99;100.00
43820;BME280;67762;52.476;6.046;2023-06-24T09:21:50;61604.63;;;-141.99;100.00
43820;BME280;67762;52.476;6.046;2023-06-24T09:24:18;61604.63;;;-141.99;100.00
43820;BME280;67762;52.476;6.046;2023-06-24T09:26:44;61604.63;;;-141.99;100.00
43820;BME280;67762;52.476;6.046;2023-06-24T09:29:13;61604.63;;;-141.99;100.00
43820;BME280;67762;52.476;6.046;2023-06-24T09:31:49;61604.63;;;-141.99;100.00
43820;BME280;67762;52.476;6.046;2023-06-24T09:34:16;61604.63;;;-141.99;100.00
43820;BME280;67762;52.476;6.046;2023-06-24T09:36:43;61604.63;;;-141.99;100.00
43820;BME280;67762;52.476;6.046;2023-06-24T09:39:10;61604.63;;;-141.99;100.00
43820;BME280;67762;52.476;6.046;2023-06-24T09:41:36;61604.63;;;-141.99;100.00
43820;BME280;67762;52.476;6.046;2023-06-24T09:44:02;61604.63;;;-141.99;100.00
43820;BME280;67762;52.476;6.046;2023-06-24T09:46:30;61604.63;;;-141.99;100.00
43820;BME280;67762;52.476;6.046;2023-06-24T09:48:56;61604.63;;;-141.99;100.00
43820;BME280;67762;52.476;6.046;2023-06-24T09:51:23;61604.63;;;-141.99;100.00
43820;BME280;67762;52.476;6.046;2023-06-24T09:53:54;61604.63;;;-141.99;100.00
43820;BME280;67762;52.476;6.046;2023-06-24T09:56:23;61604.63;;;-141.99;100.00
43820;BME280;67762;52.476;6.046;2023-06-24T09:58:49;61604.63;;;-141.99;100.00
43820;BME280;67762;52.476;6.046;2023-06-24T10:01:15;61604.63;;;-141.99;100.00
43820;BME280;67762;52.476;6.046;2023-06-24T10:03:42;61604.63;;;-141.99;100.00
43820;BME280;67762;52.476;6.046;2023-06-24T10:06:08;61604.63;;;-141.99;100.00
43820;BME280;67762;52.476;6.046;2023-06-24T10:08:34;61604.63;;;-141.99;100.00
43820;BME280;67762;52.476;6.046;2023-06-24T10:11:00;61604.63;;;-141.99;100.00
43820;BME280;67762;52.476;6.046;2023-06-24T10:13:27;61604.63;;;-141.99;100.00
43820;BME280;67762;52.476;6.046;2023-06-24T10:15:55;61604.63;;;-141.99;100.00
43820;BME280;67762;52.476;6.046;2023-06-24T10:20:56;61604.63;;;-141.99;100.00
43820;BME280;67762;52.476;6.046;2023-06-24T10:23:22;61604.63;;;-141.99;100.00
43820;BME280;67762;52.476;6.046;2023-06-24T10:25:48;61604.63;;;-141.99;100.00
43820;BME280;67762;52.476;6.046;2023-06-24T10:28:13;61604.63;;;-141.99;100.00
43820;BME280;67762;52.476;6.046;2023-06-24T10:30:39;61604.63;;;-141.99;100.00
43820;BME280;67762;52.476;6.046;2023-06-24T10:33:10;61604.63;;;-141.99;100.00
43820;BME280;67762;52.476;6.046;2023-06-24T10:35:41;61604.63;;;-141.99;100.00
43820;BME280;67762;52.476;6.046;2023-06-24T10:38:10;61604.63;;;-141.99;100.00
43820;BME280;67762;52.476;6.046;2023-06-24T10:40:40;61604.63;;;-141.99;100.00
43820;BME280;67762;52.476;6.046;2023-06-24T10:43:27;61604.63;;;-141.99;100.00
43820;BME280;67762;52.476;6.046;2023-06-24T10:45:57;61604.63;;;-141.99;100.00
43820;BME280;67762;52.476;6.046;2023-06-24T10:48:23;61604.63;;;-141.99;100.00
43820;BME280;67762;52.476;6.046;2023-06-24T10:50:50;61604.63;;;-141.99;100.00
43820;BME280;67762;52.476;6.046;2023-06-24T10:53:16;61604.63;;;-141.99;100.00
43820;BME280;67762;52.476;6.046;2023-06-24T10:55:44;61604.63;;;-141.99;100.00
43820;BME280;67762;52.476;6.046;2023-06-24T10:58:11;61604.63;;;-141.99;100.00
43820;BME280;67762;52.476;6.046;2023-06-24T11:00:39;61604.63;;;-141.99;100.00
43820;BME280;67762;52.476;6.046;2023-06-24T11:05:38;61604.63;;;-141.99;100.00
43820;BME280;67762;52.476;6.046;2023-06-24T11:08:05;61604.63;;;-141.99;100.00
43820;BME280;67762;52.476;6.046;2023-06-24T11:10:31;61604.63;;;-141.99;100.00
43820;BME280;67762;52.476;6.046;2023-06-24T11:12:57;61604.63;;;-141.99;100.00
43820;BME280;67762;52.476;6.046;2023-06-24T11:15:24;61604.63;;;-141.99;100.00
43820;BME280;67762;52.476;6.046;2023-06-24T11:17:53;61604.63;;;-141.99;100.00
43820;BME280;67762;52.476;6.046;2023-06-24T11:20:18;61604.63;;;-141.99;100.00
43820;BME280;67762;52.476;6.046;2023-06-24T11:22:44;61604.63;;;-141.99;100.00
43820;BME280;67762;52.476;6.046;2023-06-24T11:25:20;61604.63;;;-141.99;100.00
43820;BME280;67762;52.476;6.046;2023-06-24T11:27:47;61604.63;;;-141.99;100.00
43820;BME280;67762;52.476;6.046;2023-06-24T11:30:16;61604.63;;;-141.99;100.00
43820;BME280;67762;52.476;6.046;2023-06-24T11:32:43;61604.63;;;-141.99;100.00
43820;BME280;67762;52.476;6.046;2023-06-24T11:35:11;61604.63;;;-141.99;100.00
43820;BME280;67762;52.476;6.046;2023-06-24T11:37:36;61604.63;;;-141.99;100.00
43820;BME280;67762;52.476;6.046;2023-06-24T11:40:07;61604.63;;;-141.99;100.00
43820;BME280;67762;52.476;6.046;2023-06-24T11:42:40;61604.63;;;-141.99;100.00
43820;BME280;67762;52.476;6.046;2023-06-24T11:45:10;61604.63;;;-141.99;100.00
43820;BME280;67762;52.476;6.046;2023-06-24T11:47:39;61604.63;;;-141.99;100.00
43820;BME280;67762;52.476;6.046;2023-06-24T11:50:07;61604.63;;;-141.99;100.00
43820;BME280;67762;52.476;6.046;2023-06-24T11:55:02;61604.63;;;-141.99;100.00
43820;BME280;67762;52.476;6.046;2023-06-24T11:57:52;61604.63;;;-141.99;100.00
43820;BME280;67762;52.476;6.046;2023-06-24T12:00:25;61604.63;;;-141.99;100.00
43820;BME280;67762;52.476;6.046;2023-06-24T12:02:59;61604.63;;;-141.99;100.00
43820;BME280;67762;52.476;6.046;2023-06-24T12:05:36;61604.63;;;-141.99;100.00
43820;BME280;67762;52.476;6.046;2023-06-24T12:08:11;61604.63;;;-141.99;100.00
43820;BME280;67762;52.476;6.046;2023-06-24T12:10:38;61604.63;;;-141.99;100.00
43820;BME280;67762;52.476;6.046;2023-06-24T12:13:05;61604.63;;;-141.99;100.00
43820;BME280;67762;52.476;6.046;2023-06-24T12:15:34;61604.63;;;-141.99;100.00
43820;BME280;67762;52.476;6.046;2023-06-24T12:18:01;61604.63;;;-141.99;100.00
43820;BME280;67762;52.476;6.046;2023-06-24T12:20:28;61604.63;;;-141.99;100.00
43820;BME280;67762;52.476;6.046;2023-06-24T12:22:54;61604.63;;;-141.99;100.00
43820;BME280;67762;52.476;6.046;2023-06-24T12:25:21;61604.63;;;-141.99;100.00
43820;BME280;67762;52.476;6.046;2023-06-24T12:27:47;61604.63;;;-141.99;100.00
43820;BME280;67762;52.476;6.046;2023-06-24T12:30:13;61604.63;;;-141.99;100.00
43820;BME280;67762;52.476;6.046;2023-06-24T12:32:39;61604.63;;;-141.99;100.00
43820;BME280;67762;52.476;6.046;2023-06-24T12:35:06;61604.63;;;-141.99;100.00
43820;BME280;67762;52.476;6.046;2023-06-24T12:37:34;61604.63;;;-141.99;100.00
43820;BME280;67762;52.476;6.046;2023-06-24T12:40:02;61604.63;;;-141.99;100.00
43820;BME280;67762;52.476;6.046;2023-06-24T12:42:28;61604.63;;;-141.99;100.00
43820;BME280;67762;52.476;6.046;2023-06-24T12:44:54;61604.63;;;-141.99;100.00
43820;BME280;67762;52.476;6.046;2023-06-24T12:47:20;61604.63;;;-141.99;100.00
43820;BME280;67762;52.476;6.046;2023-06-24T12:49:46;61604.63;;;-141.99;100.00
43820;BME280;67762;52.476;6.046;2023-06-24T12:52:13;61604.63;;;-141.99;100.00
43820;BME280;67762;52.476;6.046;2023-06-24T12:54:40;61604.63;;;-141.99;100.00
43820;BME280;67762;52.476;6.046;2023-06-24T12:57:06;61604.63;;;-141.99;100.00
43820;BME280;67762;52.476;6.046;2023-06-24T12:59:32;61604.63;;;-141.99;100.00
43820;BME280;67762;52.476;6.046;2023-06-24T13:01:57;61604.63;;;-141.99;100.00